To NAV CANADA Home Page Login to a new session Search on AWWS site Feedback and Comments Disclaimer Vers la page française équivalente Tips FAQ What's new on the site To the Forecasts and Observations / NOTAM section To "File a Flight Plan" website Publications and other links Update of the User's profile FIC Telephone Numbers My Weather Data Folder Route Weather Data Regional Weather Data Local Weather Data To the Forecasts and Observations / NOTAM section
Request Generated 07/28/2015 at 05:45:45 UTC . Weather information available at that time is displayed.

METAR/TAF

CAPE DORSET/NU    

SPECI CYTE 280526Z AUTO 09009KT 9SM -RA OVC004 03/03 A2989 RMK
SLP125=
METAR CYTE 280500Z AUTO 10008KT 9SM OVC004 03/03 A2989 RMK SLP123=
METAR CYTE 280400Z AUTO 09006KT 9SM OVC004 03/03 A2988 RMK SLP122=
METAR CYTE 280300Z AUTO 09006KT 7SM OVC004 03/02 A2988 RMK SLP121=

TAF CYTE 280038Z 2801/2813 09008KT P6SM SCT008 BKN090 TEMPO 2801/2813
3SM BR BKN004 OVC050 PROB30 2801/2813 1/2SM FG VV002
RMK FCST BASED ON AUTO OBS. NXT FCST BY 280700Z=
Your time UTC time
Weather data provided by Environment Canada and NAV CANADA